Accueil
METAR-TAF:

METAR-TAF

Aéroports :

Aéroport international de Nouakchott-Oumtounsy

Nouakchott, Mauritanie

latitude: 18-18-36N, longitude: 015-58-11W, altitude: 3 m

Observation

Le bulletin a été fait il y a 46 minutes, à 09:30 UTC
Vent 16 kt de nord
Température 22°C
Humidité 46%
Pression 1013 hPa
Visibilité 10 km ou plus
pas de nuages en-dessous de 1500 mètres et pas de cumulonimbus.

METAR: GQNO 220930Z 36016KT CAVOK 22/10 Q1013 NOSIG

Heure: 10:16 (10:16 UTC)

Prévision

Le bulletin a été fait il y a 4 heures et 46 minutes, à 05:30 UTC
Prévision valable du 22 à 06 UTC au 23 à 12 UTC
Vent 10 kt de nord/nord-ouest
Visibilité: 8000 m
Evoluant progressivement
du 22 à 09 UTC au 22 à 10 UTC
Vent 10 kt de nord-est
Evoluant progressivement
du 22 à 12 UTC au 22 à 15 UTC
Vent 14 kt de nord/nord-ouest

TAF: GQNO 220530Z 2206/2312 33010KT 8000 NSC BECMG 2209/2210 04010KT BECMG 2212/2215 33014KT

Observations et prévisions météorologiques de plus de 4000 aéroports (messages METAR et TAF).

Les stations disponibles sont représentées par des disques jaunes et rouges sur la carte.

Passer la souris dessus pour voir le nom de la station.

Cliquer dessus pour voir les observations et prévisions météorologiques.

Pour changer de carte: cliquez sur les boutons verts avec une croix noire pour zoomer, sur le bouton vert avec un tiret pour effectuer un zoom arrière, ou sur les flèches vertes pour les cartes adjacentes.


METAR-TAF: